Portada
METAR-TAF:

METAR-TAF

Aeroports :

Xarm al xeic, Egipte

latitud: 27-58N, longitud: 034-23E, altitud: 50 m

Observació

L'informe es va fer fa 50 minuts, a les 03:00 UTC
Vent 11 kt del Nord
Temperatura 24°C
Humitat 57%
Pressió 1015 hPa
Visibilitat 10 km o més
sense núvols per sota de 1500 mi sense presència de cumulonimbus.

METAR: HESH 220300Z 36011KT CAVOK 24/15 Q1015 NOSIG

Hora: 05:50 (03:50 UTC)

Pronòstic

L'informe es va fer fa 4 hores i 50 minuts, a les 23:00 UTC
Pronòstic vàlid del 22 a les 00 UTC al 23 a les 06 UTC
Vent 12 kt del Nord/Nord-Oest
Visibilitat 10 km o més
sense núvols per sota de 1500 mi sense presència de cumulonimbus.

TAF: HESH 212300Z 2200/2306 34012KT CAVOK

Observacions i pronòstics meteorològics de més de 4000 aeroports (METAR i TAF).

Les estacions disponibles són els punts grocs i vermells al mapa.

Posi el ratolí al punt desitjat per veure el nom de l'estació.

Feu clic per veure les observacions i els pronòstics meteorològics.

Per canviar el mapa: feu clic els botons verds amb una creu de color negre per apropar; al botó verd amb un guió per allunyar la imatge; o en les fletxes verdes per a mapes adjacents.


METAR-TAF: